Time;durP1;ratioP1;P1;durP2;ratioP2;P2;SDS_P1;SDS_P2;PMS_P1;PMS_P2;Temp;Humidity;BMP_temperature;BMP_pressure;BME280_temperature;BME280_humidity;BME280_pressure;Samples;Min_cycle;Max_cycle;Signal;HPM_P1;HPM_P2
2021/07/24 00:01:40;;;;;;;25.00;22.50;;;17.40;99.90;;;;;;5068524;28;20466;-68
2021/07/24 00:04:08;;;;;;;29.17;26.10;;;17.30;99.90;;;;;;5068565;28;20447;-68
2021/07/24 00:06:35;;;;;;;25.83;22.93;;;17.40;99.90;;;;;;5068122;28;20759;-69
2021/07/24 00:09:04;;;;;;;30.80;23.33;;;17.40;99.90;;;;;;5068501;28;20439;-70
2021/07/24 00:11:32;;;;;;;25.27;22.63;;;17.30;99.90;;;;;;5068452;28;20588;-68
2021/07/24 00:13:59;;;;;;;25.30;22.60;;;17.20;99.90;;;;;;5068475;28;20462;-69
2021/07/24 00:16:26;;;;;;;24.37;21.87;;;17.10;99.90;;;;;;5068428;28;20467;-68
2021/07/24 00:18:52;;;;;;;23.07;20.57;;;17.20;99.90;;;;;;5068302;28;20471;-69
2021/07/24 00:21:21;;;;;;;21.33;19.03;;;17.20;99.90;;;;;;5068052;28;20447;-68
2021/07/24 00:23:48;;;;;;;23.67;19.73;;;17.30;99.90;;;;;;5068651;28;20446;-68
2021/07/24 00:26:16;;;;;;;22.50;20.20;;;17.20;99.90;;;;;;5068171;28;20471;-68
2021/07/24 00:28:43;;;;;;;25.33;22.43;;;17.20;99.90;;;;;;5068056;28;20704;-69
2021/07/24 00:31:10;;;;;;;22.90;20.57;;;17.20;99.90;;;;;;5067755;28;21030;-69
2021/07/24 00:33:37;;;;;;;23.77;21.27;;;17.20;99.90;;;;;;5070368;28;20459;-69
2021/07/24 00:36:04;;;;;;;23.67;19.10;;;17.20;99.90;;;;;;5066166;28;20542;-70
2021/07/24 00:38:33;;;;;;;22.40;20.00;;;17.20;99.90;;;;;;5066932;28;20861;-68
2021/07/24 00:41:04;;;;;;;23.73;21.33;;;17.20;99.90;;;;;;5066979;28;20454;-70
2021/07/24 00:43:35;;;;;;;22.67;19.97;;;17.20;99.90;;;;;;5067681;28;20453;-68
2021/07/24 00:46:04;;;;;;;24.50;19.33;;;17.10;99.90;;;;;;5067874;28;20446;-69
2021/07/24 00:48:32;;;;;;;24.27;21.67;;;17.00;99.90;;;;;;5067789;28;20481;-69
2021/07/24 00:50:59;;;;;;;23.33;20.87;;;17.00;99.90;;;;;;5067328;28;20968;-69
2021/07/24 00:53:34;;;;;;;21.20;19.00;;;17.00;99.90;;;;;;5067550;28;20453;-69
2021/07/24 00:56:04;;;;;;;21.53;19.20;;;17.00;99.90;;;;;;5067743;28;20450;-69
2021/07/24 00:58:32;;;;;;;23.10;19.40;;;17.00;99.90;;;;;;5067281;28;20443;-68
2021/07/24 01:01:00;;;;;;;23.40;20.70;;;17.00;99.90;;;;;;5067452;28;20486;-68
2021/07/24 01:03:27;;;;;;;21.27;19.07;;;16.90;99.90;;;;;;5072016;28;20446;-68
2021/07/24 01:05:56;;;;;;;23.57;21.07;;;16.80;99.90;;;;;;5089622;28;20537;-68
2021/07/24 01:08:24;;;;;;;22.37;20.17;;;16.80;99.90;;;;;;5089509;28;20541;-68
2021/07/24 01:10:52;;;;;;;24.13;21.60;;;16.90;99.90;;;;;;5089190;28;20533;-69
2021/07/24 01:13:21;;;;;;;23.23;20.00;;;16.80;99.90;;;;;;5093670;28;20442;-68
2021/07/24 01:15:50;;;;;;;24.07;21.50;;;16.80;99.90;;;;;;5092360;28;20477;-69
2021/07/24 01:18:17;;;;;;;23.33;20.80;;;16.80;99.90;;;;;;5092726;28;20462;-69
2021/07/24 01:20:46;;;;;;;24.90;20.90;;;16.80;99.90;;;;;;5092623;28;20503;-69
2021/07/24 01:23:17;;;;;;;22.77;20.47;;;16.70;99.90;;;;;;5092494;28;20940;-69
2021/07/24 01:25:45;;;;;;;22.00;19.70;;;16.70;99.90;;;;;;5093052;28;20442;-69
2021/07/24 01:28:12;;;;;;;22.23;19.97;;;16.70;99.90;;;;;;5092652;28;20473;-69
2021/07/24 01:30:39;;;;;;;22.30;20.03;;;16.70;99.90;;;;;;5092886;28;20819;-69
2021/07/24 01:33:05;;;;;;;22.67;20.33;;;16.70;99.90;;;;;;5093019;28;20681;-68
2021/07/24 01:35:32;;;;;;;22.00;19.70;;;16.70;99.90;;;;;;5093104;28;20565;-69
2021/07/24 01:37:59;;;;;;;23.57;21.17;;;16.70;99.90;;;;;;5092596;28;20469;-69
2021/07/24 01:40:27;;;;;;;24.43;21.90;;;16.60;99.90;;;;;;5092242;28;21016;-69
2021/07/24 01:42:58;;;;;;;21.97;19.77;;;16.60;99.90;;;;;;5092549;28;20442;-70
2021/07/24 01:45:25;;;;;;;23.50;20.57;;;16.60;99.90;;;;;;5093084;28;20438;-69
2021/07/24 01:47:52;;;;;;;25.70;22.17;;;16.60;99.90;;;;;;5092616;28;20473;-68
2021/07/24 01:53:06;;;;;;;23.10;20.53;;;16.60;99.90;;;;;;5092589;28;20425;-68
2021/07/24 01:55:40;;;;;;;24.90;22.23;;;16.50;99.90;;;;;;5092920;28;20457;-69
2021/07/24 01:58:09;;;;;;;29.50;21.60;;;16.50;99.90;;;;;;5092366;28;20485;-70
2021/07/24 02:00:38;;;;;;;24.40;21.83;;;16.50;99.90;;;;;;5092116;28;20474;-68
2021/07/24 02:03:09;;;;;;;23.53;21.10;;;16.40;99.90;;;;;;5092204;28;20541;-69
2021/07/24 02:05:41;;;;;;;26.77;22.77;;;16.50;99.90;;;;;;5092179;28;20442;-68
2021/07/24 02:08:10;;;;;;;25.73;23.00;;;16.40;99.90;;;;;;5092034;28;20474;-69
2021/07/24 02:10:39;;;;;;;27.07;22.87;;;16.50;99.90;;;;;;5091853;28;20442;-68
2021/07/24 02:13:06;;;;;;;27.17;24.17;;;16.50;99.90;;;;;;5091878;28;20948;-68
2021/07/24 02:15:33;;;;;;;26.37;23.57;;;16.50;99.90;;;;;;5091979;28;20444;-69
2021/07/24 02:18:01;;;;;;;26.57;23.77;;;16.40;99.90;;;;;;5091988;28;20466;-69
2021/07/24 02:20:28;;;;;;;24.57;21.97;;;16.50;99.90;;;;;;5091775;28;20480;-69
2021/07/24 02:22:56;;;;;;;25.10;22.50;;;16.50;99.90;;;;;;5090658;28;20446;-70
2021/07/24 02:25:23;;;;;;;27.67;24.83;;;16.50;99.90;;;;;;5091818;28;20446;-69
2021/07/24 02:27:52;;;;;;;25.70;22.97;;;16.50;99.90;;;;;;5091624;28;21083;-69
2021/07/24 02:30:19;;;;;;;25.63;22.90;;;16.60;99.90;;;;;;5091186;28;20536;-68
2021/07/24 02:32:46;;;;;;;25.13;22.33;;;16.60;99.90;;;;;;5091618;28;20446;-68
2021/07/24 02:35:14;;;;;;;24.80;22.30;;;16.60;99.90;;;;;;5091767;28;20820;-68
2021/07/24 02:37:41;;;;;;;25.17;22.57;;;16.50;99.90;;;;;;5091571;28;20462;-69
2021/07/24 02:40:09;;;;;;;25.40;22.57;;;16.50;99.90;;;;;;5091383;28;20572;-69
2021/07/24 02:42:36;;;;;;;25.80;23.27;;;16.60;99.90;;;;;;5091486;28;20963;-68
2021/07/24 02:45:05;;;;;;;25.53;22.90;;;16.60;99.90;;;;;;5091476;28;20446;-69
2021/07/24 02:47:32;;;;;;;27.43;24.47;;;16.60;99.90;;;;;;5091438;28;20476;-68
2021/07/24 02:49:58;;;;;;;30.20;24.03;;;16.50;99.90;;;;;;5091099;28;20813;-68
2021/07/24 02:52:25;;;;;;;26.17;23.23;;;16.50;99.90;;;;;;5091289;28;20461;-68
2021/07/24 02:54:52;;;;;;;24.10;21.70;;;16.60;99.90;;;;;;5091250;28;20460;-70
2021/07/24 02:57:20;;;;;;;26.70;21.80;;;16.70;99.90;;;;;;5091006;28;20465;-67
2021/07/24 02:59:46;;;;;;;27.20;23.57;;;16.70;99.90;;;;;;5090713;28;20488;-69
2021/07/24 03:02:15;;;;;;;24.43;21.90;;;16.70;99.90;;;;;;5090866;28;20445;-68
2021/07/24 03:04:42;;;;;;;25.03;22.47;;;16.70;99.90;;;;;;5091216;28;20448;-68
2021/07/24 03:07:09;;;;;;;26.23;23.57;;;16.70;99.90;;;;;;5091026;28;20469;-68
2021/07/24 03:09:36;;;;;;;24.47;22.13;;;16.80;99.90;;;;;;5090783;28;20670;-69
2021/07/24 03:12:03;;;;;;;25.27;22.57;;;16.90;99.90;;;;;;5090794;28;20877;-68
2021/07/24 03:14:30;;;;;;;24.53;21.93;;;16.80;99.90;;;;;;5090893;28;20465;-69
2021/07/24 03:16:57;;;;;;;26.70;23.60;;;16.80;99.90;;;;;;5090923;28;20473;-69
2021/07/24 03:19:25;;;;;;;25.43;22.83;;;16.80;99.90;;;;;;5090488;28;21011;-68
2021/07/24 03:21:52;;;;;;;25.47;22.90;;;16.70;99.90;;;;;;5090806;28;20442;-69
2021/07/24 03:24:19;;;;;;;25.90;23.10;;;16.70;99.90;;;;;;5090703;28;20447;-69
2021/07/24 03:26:46;;;;;;;25.27;22.57;;;16.80;99.90;;;;;;5091152;28;20468;-67
2021/07/24 03:29:13;;;;;;;26.03;23.33;;;16.80;99.90;;;;;;5090575;28;20464;-69
2021/07/24 03:31:39;;;;;;;24.07;21.60;;;16.80;99.90;;;;;;5090714;28;20829;-68
2021/07/24 03:34:06;;;;;;;24.80;22.10;;;16.80;99.90;;;;;;5090307;28;20446;-68
2021/07/24 03:36:35;;;;;;;24.93;21.53;;;16.80;99.90;;;;;;5090588;28;20478;-69
2021/07/24 03:39:01;;;;;;;25.23;22.63;;;16.90;99.90;;;;;;5090112;28;20452;-69
2021/07/24 03:41:28;;;;;;;24.93;22.40;;;16.90;99.90;;;;;;5090562;28;20481;-68
2021/07/24 03:43:55;;;;;;;26.77;23.97;;;16.90;99.90;;;;;;5090846;28;20826;-68
2021/07/24 03:46:24;;;;;;;24.43;21.70;;;16.90;99.90;;;;;;5090530;28;20470;-68
2021/07/24 03:48:52;;;;;;;26.43;23.73;;;16.90;99.90;;;;;;5090476;28;20457;-68
2021/07/24 03:51:18;;;;;;;24.77;22.27;;;16.90;99.90;;;;;;5090093;28;20520;-68
2021/07/24 03:53:47;;;;;;;21.70;19.37;;;16.90;99.90;;;;;;5090319;28;20446;-68
2021/07/24 03:56:18;;;;;;;21.87;19.57;;;17.00;99.90;;;;;;5090101;28;20437;-69
2021/07/24 03:58:46;;;;;;;22.10;19.80;;;17.00;99.90;;;;;;5090092;28;20961;-68
2021/07/24 04:01:13;;;;;;;21.93;19.70;;;17.10;99.90;;;;;;5089997;28;20509;-68
2021/07/24 04:03:40;;;;;;;21.33;19.23;;;17.10;99.90;;;;;;5090190;28;20446;-68
2021/07/24 04:06:08;;;;;;;22.43;20.20;;;17.10;99.90;;;;;;5090112;28;20453;-69
2021/07/24 04:08:36;;;;;;;22.60;20.37;;;17.30;99.90;;;;;;5090003;28;20442;-68
2021/07/24 04:11:06;;;;;;;22.70;20.30;;;17.40;99.90;;;;;;5089852;28;20525;-68
2021/07/24 04:13:34;;;;;;;20.67;18.23;;;17.40;99.90;;;;;;5090031;28;20446;-69
2021/07/24 04:16:01;;;;;;;23.03;19.43;;;17.40;99.90;;;;;;5090260;28;20900;-69
2021/07/24 04:18:31;;;;;;;21.27;19.17;;;17.50;99.90;;;;;;5090051;28;20462;-68
2021/07/24 04:20:58;;;;;;;22.07;19.77;;;17.50;99.90;;;;;;5089446;28;20838;-68
2021/07/24 04:23:26;;;;;;;23.60;21.37;;;17.70;99.90;;;;;;5089758;28;20944;-69
2021/07/24 04:25:53;;;;;;;23.43;20.90;;;17.70;99.90;;;;;;5090206;28;20482;-69
2021/07/24 04:28:21;;;;;;;21.50;19.20;;;17.70;99.90;;;;;;5090129;28;20469;-68
2021/07/24 04:30:48;;;;;;;20.87;18.70;;;17.50;99.90;;;;;;5089546;28;20959;-68
2021/07/24 04:33:15;;;;;;;22.90;20.60;;;17.50;99.90;;;;;;5090165;28;20460;-68
2021/07/24 04:35:45;;;;;;;21.27;19.17;;;17.50;99.90;;;;;;5089857;28;20442;-69
2021/07/24 04:38:12;;;;;;;21.37;19.17;;;17.50;99.90;;;;;;5089611;28;20462;-68
2021/07/24 04:40:39;;;;;;;22.97;19.53;;;17.50;99.90;;;;;;5089559;28;20478;-68
2021/07/24 04:43:06;;;;;;;22.97;20.60;;;17.60;99.90;;;;;;5089833;28;20445;-69
2021/07/24 04:45:35;;;;;;;22.90;20.60;;;17.50;99.90;;;;;;5089840;28;20456;-69
2021/07/24 04:48:01;;;;;;;23.90;21.33;;;17.60;99.90;;;;;;5093080;28;20482;-68
2021/07/24 04:50:29;;;;;;;29.90;21.50;;;17.60;99.90;;;;;;5093476;28;20537;-69
2021/07/24 04:52:56;;;;;;;23.00;20.47;;;17.60;99.90;;;;;;5093645;28;20438;-69
2021/07/24 04:55:24;;;;;;;22.20;19.90;;;17.60;99.90;;;;;;5093499;28;21019;-69
2021/07/24 04:57:52;;;;;;;23.77;20.37;;;17.70;99.90;;;;;;5093642;28;21205;-69
2021/07/24 05:00:19;;;;;;;23.37;20.90;;;17.80;99.90;;;;;;5093101;28;20928;-70
2021/07/24 05:02:48;;;;;;;22.50;20.20;;;17.90;99.90;;;;;;5093301;28;20475;-69
2021/07/24 05:05:15;;;;;;;22.80;20.50;;;17.90;99.90;;;;;;5093498;28;20437;-69
2021/07/24 05:07:42;;;;;;;22.83;20.43;;;17.80;99.90;;;;;;5093186;28;20875;-68
2021/07/24 05:10:10;;;;;;;26.87;21.20;;;17.90;99.90;;;;;;5092871;28;20441;-68
2021/07/24 05:12:40;;;;;;;23.20;20.80;;;17.80;99.90;;;;;;5093238;28;20452;-69
2021/07/24 05:15:08;;;;;;;24.77;22.17;;;17.80;99.90;;;;;;5093064;28;20533;-68
2021/07/24 05:17:40;;;;;;;22.70;20.50;;;17.80;99.90;;;;;;5093195;28;20468;-68
2021/07/24 05:20:08;;;;;;;22.93;20.40;;;17.80;99.90;;;;;;5092829;28;20471;-68
2021/07/24 05:22:35;;;;;;;23.00;20.60;;;17.80;99.90;;;;;;5093237;28;20473;-68
2021/07/24 05:25:02;;;;;;;22.00;19.70;;;17.80;99.90;;;;;;5093038;28;20453;-68
2021/07/24 05:27:29;;;;;;;23.47;20.97;;;17.90;99.90;;;;;;5093071;28;20462;-68
2021/07/24 05:29:56;;;;;;;21.80;19.70;;;18.00;99.90;;;;;;5092497;28;20975;-69
2021/07/24 05:32:23;;;;;;;21.57;19.57;;;18.10;99.90;;;;;;5093136;28;20441;-69
2021/07/24 05:34:50;;;;;;;21.50;18.73;;;18.20;99.90;;;;;;5093313;28;20461;-69
2021/07/24 05:37:18;;;;;;;22.60;20.20;;;18.40;99.90;;;;;;5093023;28;20462;-68
2021/07/24 05:39:45;;;;;;;22.80;20.50;;;18.60;99.90;;;;;;5092543;28;20499;-68
2021/07/24 05:42:12;;;;;;;22.67;20.50;;;18.70;99.90;;;;;;5092513;28;20995;-67
2021/07/24 05:44:39;;;;;;;21.10;18.90;;;18.80;99.90;;;;;;5092670;28;20442;-69
2021/07/24 05:47:06;;;;;;;20.80;18.80;;;19.10;99.90;;;;;;5092502;28;20897;-68
2021/07/24 05:49:33;;;;;;;19.27;17.20;;;19.40;99.90;;;;;;5092303;28;20529;-68
2021/07/24 05:52:01;;;;;;;21.90;18.37;;;19.70;99.90;;;;;;5092653;28;20503;-68
2021/07/24 05:54:29;;;;;;;19.67;17.73;;;20.00;99.90;;;;;;5092423;28;20723;-68
2021/07/24 05:56:56;;;;;;;20.90;18.67;;;20.20;99.90;;;;;;5091968;28;20472;-66
2021/07/24 05:59:23;;;;;;;19.50;17.70;;;20.40;99.90;;;;;;5092148;28;20454;-68
2021/07/24 06:01:50;;;;;;;19.77;17.33;;;20.50;99.90;;;;;;5091987;28;21022;-69
2021/07/24 06:04:17;;;;;;;21.30;18.00;;;20.80;99.90;;;;;;5092217;28;20445;-68
2021/07/24 06:06:44;;;;;;;19.20;16.90;;;21.00;99.90;;;;;;5091842;28;20481;-70
2021/07/24 06:09:10;;;;;;;20.10;17.90;;;21.10;99.90;;;;;;5091848;28;20533;-68
2021/07/24 06:11:39;;;;;;;19.60;17.60;;;21.20;99.90;;;;;;5091672;28;20537;-70
2021/07/24 06:14:06;;;;;;;18.27;16.53;;;21.20;99.90;;;;;;5091871;28;20822;-69
2021/07/24 06:16:32;;;;;;;23.60;20.10;;;21.30;99.90;;;;;;5091663;28;20462;-68
2021/07/24 06:19:01;;;;;;;20.20;18.10;;;21.40;99.90;;;;;;5091363;28;20442;-68
2021/07/24 06:21:28;;;;;;;19.83;17.80;;;21.20;99.90;;;;;;5091337;28;21215;-69
2021/07/24 06:23:55;;;;;;;20.10;18.03;;;21.10;99.90;;;;;;5091508;28;20541;-68
2021/07/24 06:26:22;;;;;;;25.50;20.20;;;21.00;99.90;;;;;;5091487;28;20467;-68
2021/07/24 06:28:50;;;;;;;23.23;20.70;;;20.90;99.90;;;;;;5091605;28;20446;-68
2021/07/24 06:31:17;;;;;;;21.73;19.63;;;20.80;99.90;;;;;;5091178;28;20461;-67
2021/07/24 06:33:44;;;;;;;21.00;18.77;;;20.70;99.90;;;;;;5091235;28;20885;-67
2021/07/24 06:36:10;;;;;;;22.47;20.20;;;20.60;99.90;;;;;;5091314;28;20549;-66
2021/07/24 06:38:37;;;;;;;22.83;18.90;;;20.50;99.90;;;;;;5091246;28;20948;-66
2021/07/24 06:41:05;;;;;;;24.17;21.40;;;20.30;99.90;;;;;;5091113;28;20486;-67
2021/07/24 06:43:32;;;;;;;21.53;19.33;;;20.20;99.90;;;;;;5091070;28;20442;-66
2021/07/24 06:46:09;;;;;;;21.90;19.63;;;20.00;99.90;;;;;;5090954;28;20475;-67
2021/07/24 06:48:36;;;;;;;22.83;20.53;;;19.80;99.90;;;;;;5088263;28;20451;-66
2021/07/24 06:51:05;;;;;;;24.43;21.90;;;19.90;99.90;;;;;;5075332;28;20446;-67
2021/07/24 06:53:32;;;;;;;21.70;19.60;;;20.10;99.90;;;;;;5078869;28;20481;-66
2021/07/24 06:55:59;;;;;;;22.77;20.57;;;20.30;99.90;;;;;;5081177;28;20505;-66
2021/07/24 06:58:26;;;;;;;24.60;21.37;;;20.60;99.90;;;;;;5090935;28;20450;-67
2021/07/24 07:00:53;;;;;;;23.03;20.50;;;20.80;99.90;;;;;;5090513;28;20482;-67
2021/07/24 07:03:22;;;;;;;20.93;18.90;;;21.00;99.90;;;;;;5090555;28;21038;-67
2021/07/24 07:05:49;;;;;;;24.00;21.50;;;21.30;99.90;;;;;;5090739;28;20843;-68
2021/07/24 07:08:16;;;;;;;21.37;19.17;;;21.60;99.90;;;;;;5090427;28;20537;-65
2021/07/24 07:10:43;;;;;;;21.33;19.17;;;21.90;99.90;;;;;;5089834;28;20450;-68
2021/07/24 07:13:10;;;;;;;23.33;19.47;;;22.30;99.90;;;;;;5090653;28;20464;-66
2021/07/24 07:15:36;;;;;;;22.80;20.53;;;22.50;99.90;;;;;;5090299;28;20892;-67
2021/07/24 07:18:04;;;;;;;21.80;19.50;;;22.70;99.90;;;;;;5090758;28;20466;-67
2021/07/24 07:20:32;;;;;;;23.13;20.87;;;23.10;99.90;;;;;;5090105;28;20829;-64
2021/07/24 07:22:59;;;;;;;21.80;19.80;;;23.20;99.90;;;;;;5083230;28;20691;-67
2021/07/24 07:25:26;;;;;;;23.50;21.13;;;23.00;99.90;;;;;;5074017;28;20447;-66
2021/07/24 07:27:53;;;;;;;21.93;19.63;;;22.80;99.90;;;;;;5082766;28;20472;-66
2021/07/24 07:30:20;;;;;;;22.83;20.53;;;22.80;99.90;;;;;;5078055;28;20933;-65
2021/07/24 07:32:46;;;;;;;20.17;18.20;;;22.70;99.90;;;;;;5077853;28;20445;-66
2021/07/24 07:35:14;;;;;;;22.43;20.03;;;22.60;99.90;;;;;;5082456;28;20450;-69
2021/07/24 07:37:50;;;;;;;22.67;20.13;;;22.70;99.90;;;;;;5083279;28;20542;-67
2021/07/24 07:40:18;;;;;;;19.30;17.23;;;22.50;99.90;;;;;;5090006;28;20452;-66
2021/07/24 07:42:45;;;;;;;23.90;20.10;;;22.50;99.90;;;;;;5090088;28;20899;-67
2021/07/24 07:45:12;;;;;;;19.80;17.80;;;22.70;99.90;;;;;;5090564;28;20647;-67
2021/07/24 07:47:39;;;;;;;19.63;17.63;;;22.80;99.90;;;;;;5089860;28;20478;-67
2021/07/24 07:50:07;;;;;;;19.53;17.43;;;22.90;99.90;;;;;;5090182;28;20540;-66
2021/07/24 07:52:34;;;;;;;21.13;17.80;;;23.10;99.90;;;;;;5090155;28;20450;-67
2021/07/24 07:55:03;;;;;;;18.53;16.83;;;23.30;99.90;;;;;;5090163;28;20442;-65
2021/07/24 07:57:30;;;;;;;19.17;17.33;;;23.50;99.90;;;;;;5085652;28;21033;-66
2021/07/24 07:59:57;;;;;;;17.73;15.73;;;23.60;99.90;;;;;;5083322;28;20503;-66
2021/07/24 08:02:24;;;;;;;19.02;17.13;;;23.70;99.90;;;;;;5088871;28;20531;-65
2021/07/24 08:04:51;;;;;;;17.33;15.63;;;23.70;99.90;;;;;;5089641;28;20928;-67
2021/07/24 08:07:17;;;;;;;17.50;15.50;;;23.50;99.90;;;;;;5081248;28;20462;-65
2021/07/24 08:09:45;;;;;;;18.80;15.80;;;23.30;99.90;;;;;;5083024;28;20936;-66
2021/07/24 08:12:13;;;;;;;18.30;16.40;;;23.00;99.90;;;;;;5090059;28;20532;-67
2021/07/24 08:14:40;;;;;;;23.20;16.30;;;22.90;99.90;;;;;;5089602;28;20454;-68
2021/07/24 08:17:08;;;;;;;20.73;15.97;;;22.70;99.90;;;;;;5089529;28;20466;-69
2021/07/24 08:19:35;;;;;;;18.37;16.47;;;22.60;99.90;;;;;;5082705;28;20450;-69
2021/07/24 08:22:03;;;;;;;18.90;16.90;;;22.40;99.90;;;;;;5079590;28;20470;-67
2021/07/24 08:24:29;;;;;;;22.97;20.43;;;22.30;99.90;;;;;;5080872;28;20449;-66
2021/07/24 08:26:56;;;;;;;17.83;15.67;;;22.20;99.90;;;;;;5080546;28;21061;-65
2021/07/24 08:29:24;;;;;;;18.63;16.73;;;22.10;99.90;;;;;;5085584;28;20534;-68
2021/07/24 08:31:51;;;;;;;17.30;15.57;;;22.10;99.90;;;;;;5083045;28;20423;-68
2021/07/24 08:34:18;;;;;;;19.10;17.10;;;22.10;99.90;;;;;;5073715;28;20457;-68
2021/07/24 08:36:45;;;;;;;19.83;17.10;;;22.10;99.90;;;;;;5086100;28;21645;-66
2021/07/24 08:39:11;;;;;;;18.63;16.60;;;21.90;99.90;;;;;;5075469;28;20452;-67
2021/07/24 08:41:41;;;;;;;18.83;16.70;;;22.00;99.90;;;;;;5078270;28;20484;-66
2021/07/24 08:44:10;;;;;;;18.73;16.73;;;22.30;99.90;;;;;;5079259;28;20446;-67
2021/07/24 08:46:38;;;;;;;18.63;16.73;;;22.50;99.90;;;;;;5076834;28;20474;-68
2021/07/24 08:49:05;;;;;;;19.53;17.60;;;22.90;99.90;;;;;;5082121;28;20999;-70
2021/07/24 08:51:34;;;;;;;19.77;17.70;;;23.10;99.90;;;;;;5083754;28;20538;-68
2021/07/24 08:54:01;;;;;;;20.40;16.00;;;23.30;99.90;;;;;;5077778;28;20451;-70
2021/07/24 08:56:33;;;;;;;16.67;15.00;;;23.70;99.90;;;;;;5082939;28;20458;-69
2021/07/24 08:59:02;;;;;;;17.90;15.73;;;24.20;99.90;;;;;;5082190;28;20807;-69
2021/07/24 09:01:31;;;;;;;16.80;15.03;;;24.80;99.90;;;;;;5077614;28;20841;-68
2021/07/24 09:04:04;;;;;;;17.30;15.60;;;25.20;99.90;;;;;;5080666;28;20450;-69
2021/07/24 09:06:31;;;;;;;17.00;15.40;;;25.60;99.90;;;;;;5086140;28;20463;-67
2021/07/24 09:08:58;;;;;;;15.10;13.60;;;25.90;99.90;;;;;;5078089;28;20462;-68
2021/07/24 09:11:25;;;;;;;16.53;14.93;;;26.20;99.90;;;;;;5081426;28;20443;-72
2021/07/24 09:13:52;;;;;;;14.60;13.13;;;26.50;99.90;;;;;;5082067;28;20446;-68
2021/07/24 09:16:19;;;;;;;14.10;12.70;;;26.80;99.90;;;;;;5080194;28;21005;-69
2021/07/24 09:18:48;;;;;;;15.23;13.57;;;27.20;99.90;;;;;;5079583;28;20452;-69
2021/07/24 09:21:19;;;;;;;15.60;13.63;;;27.10;99.90;;;;;;5079882;28;20454;-67
2021/07/24 09:23:47;;;;;;;14.00;12.73;;;27.20;99.90;;;;;;5084666;28;20438;-67
2021/07/24 09:26:34;;;;;;;13.43;12.00;;;27.50;99.90;;;;;;5079225;28;20555;-69
2021/07/24 09:29:11;;;;;;;14.40;12.90;;;27.70;99.90;;;;;;5078645;28;20442;-69
2021/07/24 09:31:40;;;;;;;13.60;12.30;;;28.00;99.90;;;;;;5086161;28;20445;-69
2021/07/24 09:34:07;;;;;;;12.77;11.53;;;28.00;99.90;;;;;;5079819;28;20451;-69
2021/07/24 09:36:36;;;;;;;13.77;12.37;;;28.20;99.90;;;;;;5083616;28;20462;-68
2021/07/24 09:39:11;;;;;;;12.70;11.50;;;28.40;99.90;;;;;;5080307;28;20442;-68
2021/07/24 09:41:39;;;;;;;15.90;11.13;;;28.50;99.90;;;;;;5086867;28;20507;-68
2021/07/24 09:44:06;;;;;;;12.23;11.00;;;28.60;99.90;;;;;;5083178;28;20529;-69
2021/07/24 09:46:33;;;;;;;12.43;11.33;;;28.70;99.90;;;;;;5085509;28;21330;-68
2021/07/24 09:49:11;;;;;;;13.17;11.77;;;28.80;99.90;;;;;;5079992;28;20447;-68
2021/07/24 09:51:40;;;;;;;16.37;13.23;;;28.80;99.90;;;;;;5083584;28;20943;-68
2021/07/24 09:54:23;;;;;;;14.90;13.30;;;28.70;99.90;;;;;;5079228;28;20461;-68
2021/07/24 09:56:50;;;;;;;14.67;13.27;;;28.80;99.90;;;;;;5073729;28;20467;-68
2021/07/24 09:59:19;;;;;;;14.10;12.80;;;29.10;99.90;;;;;;5072616;28;21068;-68
2021/07/24 10:01:53;;;;;;;14.47;13.13;;;29.10;99.90;;;;;;5075419;28;20481;-68
2021/07/24 10:04:25;;;;;;;14.10;12.80;;;29.10;99.90;;;;;;5075233;28;20451;-69
2021/07/24 10:06:56;;;;;;;14.73;13.43;;;29.10;99.90;;;;;;5082989;28;20463;-70
2021/07/24 10:09:27;;;;;;;12.97;11.77;;;29.30;99.90;;;;;;5072836;28;21221;-68
2021/07/24 10:11:55;;;;;;;13.90;12.17;;;29.70;99.90;;;;;;5079875;28;20436;-69
2021/07/24 10:14:22;;;;;;;17.43;13.10;;;30.10;99.90;;;;;;5078951;28;20443;-68
2021/07/24 10:16:50;;;;;;;13.43;12.20;;;30.30;99.80;;;;;;5082345;28;20465;-67
2021/07/24 10:19:18;;;;;;;14.77;13.40;;;30.50;99.10;;;;;;5082524;28;20631;-68
2021/07/24 10:21:45;;;;;;;13.10;11.90;;;30.60;99.20;;;;;;5082696;28;20529;-68
2021/07/24 10:24:13;;;;;;;13.97;12.67;;;30.70;99.40;;;;;;5087378;28;20507;-68
2021/07/24 10:26:45;;;;;;;13.57;11.70;;;30.50;99.30;;;;;;5083972;28;20461;-68
2021/07/24 10:29:18;;;;;;;13.03;11.73;;;30.60;98.30;;;;;;5082403;28;20441;-67
2021/07/24 10:31:52;;;;;;;14.63;13.23;;;30.80;98.10;;;;;;5079150;28;20438;-66
2021/07/24 10:34:23;;;;;;;13.73;12.43;;;31.20;99.10;;;;;;5086183;28;20442;-68
2021/07/24 10:36:50;;;;;;;13.57;12.37;;;31.60;96.90;;;;;;5079381;28;20516;-68
2021/07/24 10:39:22;;;;;;;12.93;11.67;;;31.90;96.70;;;;;;5079587;28;20438;-68
2021/07/24 10:41:50;;;;;;;12.87;11.57;;;32.20;95.40;;;;;;5075299;28;20877;-67
2021/07/24 10:44:34;;;;;;;11.97;10.77;;;32.40;96.20;;;;;;5080813;28;20784;-68
2021/07/24 10:47:15;;;;;;;14.10;12.00;;;32.40;95.20;;;;;;5081515;28;20556;-68
2021/07/24 10:49:59;;;;;;;16.50;11.73;;;32.80;94.40;;;;;;5077318;28;20442;-69
2021/07/24 10:52:26;;;;;;;11.90;10.90;;;33.10;94.30;;;;;;5074129;28;20796;-69
2021/07/24 10:55:14;;;;;;;13.33;12.10;;;32.80;93.20;;;;;;5075314;28;20534;-68
2021/07/24 10:58:05;;;;;;;13.13;11.80;;;32.70;92.70;;;;;;5080328;28;20469;-68
2021/07/24 11:00:34;;;;;;;13.47;12.17;;;33.00;94.10;;;;;;5076155;28;20447;-69
2021/07/24 11:03:01;;;;;;;12.10;10.67;;;33.20;91.10;;;;;;5079743;28;20531;-69
2021/07/24 11:05:29;;;;;;;10.13;9.23;;;33.30;94.20;;;;;;5083222;28;20999;-69
2021/07/24 11:07:57;;;;;;;9.37;8.47;;;33.80;91.60;;;;;;5076911;28;20459;-68
2021/07/24 11:10:26;;;;;;;10.60;9.50;;;34.10;90.40;;;;;;5070023;28;20817;-68
2021/07/24 11:12:53;;;;;;;9.70;8.80;;;34.70;88.70;;;;;;5073747;28;20443;-68
2021/07/24 11:15:21;;;;;;;10.40;9.40;;;35.30;90.10;;;;;;5073841;28;20553;-67
2021/07/24 11:18:22;;;;;;;9.83;8.93;;;35.20;85.90;;;;;;5076192;28;20474;-69
2021/07/24 11:20:49;;;;;;;10.90;9.80;;;34.40;86.20;;;;;;5077092;28;20446;-67
2021/07/24 11:23:16;;;;;;;12.07;10.87;;;33.70;87.40;;;;;;5082446;28;20476;-67
2021/07/24 11:25:47;;;;;;;12.40;10.60;;;33.30;90.40;;;;;;5082970;28;20436;-68
2021/07/24 11:28:20;;;;;;;12.87;10.57;;;33.10;89.40;;;;;;5090788;28;20465;-67
2021/07/24 11:30:56;;;;;;;12.33;10.83;;;33.00;88.70;;;;;;5090107;28;20438;-67
2021/07/24 11:33:27;;;;;;;12.70;11.43;;;32.70;90.50;;;;;;5090621;28;20436;-66
2021/07/24 11:36:02;;;;;;;12.20;11.10;;;32.60;90.60;;;;;;5090327;28;20525;-66
2021/07/24 11:38:29;;;;;;;11.40;10.40;;;32.20;91.30;;;;;;5090664;28;20442;-67
2021/07/24 11:41:08;;;;;;;10.40;9.47;;;31.90;92.80;;;;;;5090279;28;20438;-66
2021/07/24 11:43:37;;;;;;;9.93;8.93;;;31.40;91.40;;;;;;5090264;28;20473;-67
2021/07/24 11:46:06;;;;;;;10.37;9.27;;;31.10;92.90;;;;;;5090244;28;20821;-65
2021/07/24 11:48:34;;;;;;;9.33;8.33;;;30.80;93.40;;;;;;5090041;28;20532;-67
2021/07/24 11:51:04;;;;;;;10.00;8.20;;;30.40;92.30;;;;;;5090265;28;20446;-67
2021/07/24 11:53:31;;;;;;;9.20;8.00;;;30.00;92.80;;;;;;5089691;28;21154;-68
2021/07/24 11:56:00;;;;;;;8.33;7.40;;;29.50;93.50;;;;;;5089736;28;20442;-66
2021/07/24 11:58:27;;;;;;;9.90;7.43;;;29.20;93.60;;;;;;5089838;28;20802;-67
2021/07/24 12:00:56;;;;;;;8.90;7.33;;;29.00;93.40;;;;;;5089662;28;20442;-67
2021/07/24 12:03:24;;;;;;;9.40;8.50;;;28.90;94.80;;;;;;5089992;28;20485;-67
2021/07/24 12:05:53;;;;;;;8.20;7.07;;;29.20;94.70;;;;;;5089897;28;20441;-67
2021/07/24 12:08:23;;;;;;;8.23;7.33;;;29.60;94.10;;;;;;5089800;28;20976;-67
2021/07/24 12:10:50;;;;;;;8.20;7.47;;;30.10;94.00;;;;;;5089421;28;20430;-67
2021/07/24 12:13:23;;;;;;;8.93;7.33;;;30.90;92.10;;;;;;5089797;28;20832;-66
2021/07/24 12:16:04;;;;;;;9.53;7.80;;;31.90;92.90;;;;;;5089419;28;20525;-67
2021/07/24 12:18:37;;;;;;;8.90;7.00;;;33.10;90.50;;;;;;5089862;28;20438;-67
2021/07/24 12:21:15;;;;;;;8.90;8.00;;;33.60;90.40;;;;;;5089266;28;20442;-67
2021/07/24 12:23:54;;;;;;;7.60;6.90;;;34.00;83.20;;;;;;5089771;28;20561;-68
2021/07/24 12:26:23;;;;;;;9.03;7.50;;;34.60;84.80;;;;;;5089467;28;20541;-66
2021/07/24 12:28:51;;;;;;;8.97;7.37;;;34.80;82.40;;;;;;5089955;28;20442;-67
2021/07/24 12:31:28;;;;;;;8.13;7.43;;;34.40;82.40;;;;;;5089251;28;20449;-68
2021/07/24 12:33:56;;;;;;;7.93;7.13;;;34.10;82.50;;;;;;5088071;28;20438;-65
2021/07/24 12:36:24;;;;;;;8.10;7.20;;;33.50;85.30;;;;;;5067906;28;20467;-68
2021/07/24 12:38:52;;;;;;;8.87;7.53;;;33.10;83.20;;;;;;5068041;28;20451;-68